ASN logo
Last updated: 16 June 2019
Statuts:Enquête Officielle
Date:vendredi 24 juillet 2015
Heure:ca 19:00
Type/Sous-type:Silhouette image of generic AT72 model; specific model in this crash may look slightly different
ATR 72-212
Compagnie:Air Bagan
Immatriculation: XY-AIH
Numéro de série: 469
Année de Fabrication: 1995-11-16 (19 years 9 months)
Heures de vol:40827
Cycles:43954
Moteurs: 2 Pratt & Whitney Canada PW127F
Equipage:victimes: 0 / à bord: 5
Passagers:victimes: 0 / à bord: 49
Total:victimes: 0 / à bord: 54
Dégats de l'appareil: Substantiels
Conséquences: Written off (damaged beyond repair)
Lieu de l'accident:Yangon-Mingaladon Airport (RGN) (   Birmanie (Myanmar))
Phase de vol: A l'atterrissage (LDG)
Nature:Transport de Passagers Nat.
Aéroport de départ:Mandalay-Annisaton Airport (MDL/VYMD), Birmanie (Myanmar)
Aéroport de destination:Yangon-Mingaladon Airport (RGN/VYYY), Birmanie (Myanmar)
Numéro de vol:W9424
Détails:
An ATR-72-212 operated by Air Bagan was damaged in a runway excursion accident at Yangon-Mingaladon Airport (RGN), Myanmar.
Flight W9424 was a scheduled service fro Mandalay to Yangon. The copilot was Pilot Flying, while the captain was Pilot Monitoring.
It was raining as the flight approached Yangon with Cumulonimbus clouds at 1500 feet over the airport. When 4 km out, the flight was given landing clearance by ATC: "Air Bagan 424, wind calm, runway 21, clear to land, caution landing runway wet, after landed vacate via Charlie."
At decision height (250ft), runway 21 was in sight and runway lightings were seen. The aircraft continued though there was light rain. At about 50 ft, visibility suddenly became poor due to heavy rainfall. So the captain took over control of the aircraft. A few seconds later the aircraft made a hard landing, skidded and veered off the left side of the runway onto muddy ground. It came to
rest about 2800ft from the threshold and 75ft from the runway edge.

The copilot radioed a distress message, but did not use standard phraseology. The ATC controller did not appear to understand the message and was not able to give definite information and instruction to the Airport Fire Station to respond to the emergency. Therefore, the aircraft rescue and fire fighters reached the accident site after about 8 minutes.

Probable Cause:

Primary Cause
During the final landing phase, the pilot was reluctant to perform a go-around while the plane was unstable and of bounce landing in low visibility condition.
Contributing Factors
a) The visibility was very low and the runway centerline lightings were not able to be seen intermittently.
b) The runway was wet and it was raining heavily.
c) The pilot in command took over the control of the plane from the copilot (14) seconds just before the first impact.

Accident investigation:
cover
Investigating agency: MAIB
Status: Investigation completed
Accident number: Final report
Download report: Final report

Sources:
» Bangkok Post

METAR Weather report:
12:00 UTC / 18:30 local time:
VYYY 241200Z 31005KT 6000 DZ BKN012 FEW015CB OVC090 26/25 Q1009 CB S
Wind 310 degrees at 5 knots; Visibility 6000 m; Drizzle; Broken clouds at 1200 feet, Few (CB) clouds at 1500 feet, Overcast at 9000 feet; Temperature 26°C, Dew point 25°C; WNH 1009 mb

12:30 UTC / 19:00 local time:
VYYY 241230Z 32004KT 3000 RA BKN010 FEW015CB OVC080 25/25 Q1010 CB S

13:00 UTC / 19:30 local time:
VYYY 241300Z 17003KT 2000 +RA BKN010 FEW015CB OVC090 25/25 Q1011 CB S

13:30 UTC / 20:00 local time:
VYYY 241330Z 31003KT 4000 RA BKN012 FEW015CB OVC090 25/25 Q1011 CB S

14:00 UTC / 20:30 local time:
VYYY 241400Z 23005KT 3000 RA BKN010 FEW015CB OVC090 25/25 Q1011 CB S


Opérations de secours

MAIB issued 6 Safety Recommendations

Show all...

Photos

photo of ATR-72-212-F-OHFZ
accident date: 24-07-2015
type: ATR 72-212
registration: F-OHFZ
 

Video, social media

Disabled Aircraft Removalေျပးလမ္းေခ်ာ္သြားေသာ ေလယာဥ္အား ဖယ္ရွားျခင္းPhoto by Ko Myo Min Oo (Apron Management)

Posted by Aung Soe Moe on Friday, 24 July 2015

Plan
Ce plan montre l'aéroport de départ ainsi que la supposée destination du vol. La ligne fixe reliant les deux aéroports n'est pas le plan de vol exact.
La distance entre Mandalay-Annisaton Airport et Yangon-Mingaladon Airport est de 530 km (331 miles).

Les informations ci-dessus ne représentent pas l'opinion de la 'Flight Safety Foundation' ou de 'Aviation Safety Network' sur les causes de l'accident. Ces informations prélimimaires sont basées sur les faits tel qu'ils sont connus à ce jour.
languages: languages

Share